Time;durP1;ratioP1;P1;durP2;ratioP2;P2;SDS_P1;SDS_P2;PMS_P1;PMS_P2;Temp;Humidity;BMP_temperature;BMP_pressure;BME280_temperature;BME280_humidity;BME280_pressure;Samples;Min_cycle;Max_cycle;Signal;HPM_P1;HPM_P2
2022/09/12 00:01:12;;;;;;;17.90;15.60;;;14.90;99.90;;;;;;5010864;28;20615;-70
2022/09/12 00:03:39;;;;;;;20.10;16.00;;;14.80;99.90;;;;;;5010434;28;20291;-70
2022/09/12 00:06:12;;;;;;;18.77;15.27;;;14.80;99.90;;;;;;5011062;28;20668;-70
2022/09/12 00:08:39;;;;;;;16.93;14.07;;;14.80;99.90;;;;;;5009215;28;20310;-70
2022/09/12 00:11:09;;;;;;;18.30;14.50;;;14.80;99.90;;;;;;5010746;28;20301;-71
2022/09/12 00:13:39;;;;;;;20.70;15.07;;;14.80;99.90;;;;;;5010714;28;20839;-71
2022/09/12 00:16:07;;;;;;;18.07;15.80;;;14.80;99.90;;;;;;5010247;28;20285;-72
2022/09/12 00:18:34;;;;;;;17.00;14.23;;;14.80;99.90;;;;;;5009726;28;20242;-71
2022/09/12 00:21:04;;;;;;;16.70;13.77;;;14.80;99.90;;;;;;5009557;28;20246;-71
2022/09/12 00:23:31;;;;;;;19.47;15.77;;;14.80;99.90;;;;;;5009803;28;20310;-71
2022/09/12 00:25:58;;;;;;;20.03;16.47;;;14.80;99.90;;;;;;5009705;28;20206;-71
2022/09/12 00:28:25;;;;;;;18.33;15.23;;;14.80;99.90;;;;;;5010053;28;20289;-70
2022/09/12 00:30:53;;;;;;;19.03;15.20;;;14.80;99.90;;;;;;5008392;28;20298;-70
2022/09/12 00:33:20;;;;;;;20.00;16.17;;;14.80;99.90;;;;;;5005299;28;20622;-70
2022/09/12 00:35:51;;;;;;;21.40;16.47;;;14.80;99.90;;;;;;5009716;28;20634;-69
2022/09/12 00:38:19;;;;;;;21.43;16.83;;;14.80;99.90;;;;;;5009388;28;20242;-70
2022/09/12 00:40:46;;;;;;;18.60;15.43;;;14.80;99.90;;;;;;5009453;28;20293;-69
2022/09/12 00:43:15;;;;;;;17.40;14.73;;;14.90;99.90;;;;;;5009565;28;20237;-69
2022/09/12 00:45:42;;;;;;;18.97;15.33;;;14.90;99.90;;;;;;5009427;28;20226;-69
2022/09/12 00:48:20;;;;;;;18.87;15.70;;;14.90;99.90;;;;;;5007856;28;20656;-69
2022/09/12 00:50:47;;;;;;;19.27;15.07;;;14.90;99.90;;;;;;5009312;28;20211;-70
2022/09/12 00:53:14;;;;;;;15.93;13.80;;;14.90;99.90;;;;;;5009744;28;20628;-69
2022/09/12 00:55:43;;;;;;;15.10;12.60;;;14.90;99.90;;;;;;5008998;28;20297;-69
2022/09/12 00:58:17;;;;;;;15.50;12.40;;;14.90;99.90;;;;;;5009859;28;20647;-70
2022/09/12 01:00:43;;;;;;;14.23;11.63;;;14.90;99.90;;;;;;5007046;28;20199;-70
2022/09/12 01:03:14;;;;;;;12.60;11.20;;;14.90;99.90;;;;;;5008602;28;20199;-70
2022/09/12 01:05:44;;;;;;;15.37;11.73;;;14.90;99.90;;;;;;5009671;28;20210;-69
2022/09/12 01:08:11;;;;;;;11.47;10.00;;;14.80;99.90;;;;;;5009617;28;20348;-71
2022/09/12 01:10:40;;;;;;;11.43;10.13;;;14.80;99.90;;;;;;5009268;28;20254;-70
2022/09/12 01:13:09;;;;;;;12.37;9.40;;;14.80;99.90;;;;;;5008732;28;20639;-70
2022/09/12 01:15:37;;;;;;;12.30;10.30;;;14.80;99.90;;;;;;5006969;28;20217;-72
2022/09/12 01:18:15;;;;;;;11.37;9.07;;;14.80;99.90;;;;;;5008481;28;20577;-71
2022/09/12 01:20:51;;;;;;;17.47;12.40;;;14.80;99.90;;;;;;5008570;28;20294;-70
2022/09/12 01:23:48;;;;;;;10.40;8.73;;;14.80;99.90;;;;;;5008687;28;20209;-71
2022/09/12 01:26:42;;;;;;;10.50;8.33;;;14.80;99.90;;;;;;5009803;28;20362;-70
2022/09/12 01:29:23;;;;;;;9.57;7.70;;;14.80;99.90;;;;;;5010620;28;20237;-70
2022/09/12 01:31:59;;;;;;;8.50;7.60;;;14.80;99.90;;;;;;5008731;28;20277;-71
2022/09/12 01:34:30;;;;;;;8.50;7.53;;;14.70;99.90;;;;;;5009126;28;20282;-70
2022/09/12 01:37:07;;;;;;;8.17;7.03;;;14.70;99.90;;;;;;5008557;28;20564;-71
2022/09/12 01:39:43;;;;;;;8.50;7.27;;;14.70;99.90;;;;;;5009482;28;20293;-71
2022/09/12 01:42:20;;;;;;;8.07;7.03;;;14.70;99.90;;;;;;5010379;28;20219;-72
2022/09/12 01:44:53;;;;;;;9.67;6.43;;;14.70;99.90;;;;;;5009971;28;20277;-71
2022/09/12 01:47:29;;;;;;;8.33;6.73;;;14.70;99.90;;;;;;5009486;28;20195;-71
2022/09/12 01:50:01;;;;;;;9.23;6.27;;;14.60;99.90;;;;;;5011047;28;20218;-71
2022/09/12 01:52:34;;;;;;;7.73;6.70;;;14.60;99.90;;;;;;5012853;28;20286;-70
2022/09/12 01:55:07;;;;;;;8.73;6.70;;;14.60;99.90;;;;;;5012538;28;20258;-71
2022/09/12 01:57:38;;;;;;;7.77;6.40;;;14.60;99.90;;;;;;5012464;28;20561;-71
2022/09/12 02:00:10;;;;;;;8.30;6.57;;;14.60;99.90;;;;;;5012118;28;20283;-71
2022/09/12 02:02:40;;;;;;;8.40;6.80;;;14.60;99.90;;;;;;5012170;28;20226;-70
2022/09/12 02:05:10;;;;;;;8.77;6.80;;;14.50;99.90;;;;;;5012266;28;20282;-71
2022/09/12 02:07:40;;;;;;;8.00;6.83;;;14.50;99.90;;;;;;5010781;28;20301;-71
2022/09/12 02:10:11;;;;;;;9.20;7.13;;;14.50;99.90;;;;;;5012657;28;20303;-71
2022/09/12 02:12:44;;;;;;;9.00;7.83;;;14.50;99.90;;;;;;5012920;28;20291;-71
2022/09/12 02:15:14;;;;;;;9.60;7.67;;;14.50;99.90;;;;;;5011150;28;20294;-70
2022/09/12 02:17:45;;;;;;;9.40;7.63;;;14.50;99.90;;;;;;5013025;28;20306;-71
2022/09/12 02:20:17;;;;;;;7.80;7.00;;;14.40;99.90;;;;;;5012200;28;20284;-71
2022/09/12 02:22:46;;;;;;;10.17;7.40;;;14.40;99.90;;;;;;5012551;28;20209;-71
2022/09/12 02:25:16;;;;;;;12.83;6.33;;;14.40;99.90;;;;;;5012641;28;20211;-70
2022/09/12 02:27:48;;;;;;;7.80;6.80;;;14.30;99.90;;;;;;5012669;28;20192;-70
2022/09/12 02:30:16;;;;;;;7.53;6.13;;;14.30;99.90;;;;;;5013018;28;20301;-71
2022/09/12 02:32:57;;;;;;;10.30;7.17;;;14.30;99.90;;;;;;5012737;28;20203;-70
2022/09/12 02:35:32;;;;;;;8.23;6.03;;;14.30;99.90;;;;;;5012464;28;20210;-70
2022/09/12 02:38:03;;;;;;;7.07;5.90;;;14.30;99.90;;;;;;5011551;28;20325;-71
2022/09/12 02:40:31;;;;;;;7.43;5.50;;;14.20;99.90;;;;;;5012079;28;20290;-70
2022/09/12 02:42:58;;;;;;;6.30;5.70;;;14.30;99.90;;;;;;5012125;28;20297;-71
2022/09/12 02:45:25;;;;;;;6.17;5.57;;;14.20;99.90;;;;;;5011262;28;20743;-70
2022/09/12 02:47:58;;;;;;;7.40;5.50;;;14.20;99.90;;;;;;5011696;28;20207;-70
2022/09/12 02:50:26;;;;;;;6.80;5.20;;;14.30;99.90;;;;;;5012520;28;20306;-72
2022/09/12 02:52:58;;;;;;;8.40;5.43;;;14.20;99.90;;;;;;5012401;28;20207;-72
2022/09/12 02:55:25;;;;;;;7.03;6.03;;;14.20;99.90;;;;;;5012385;28;20191;-72
2022/09/12 02:57:52;;;;;;;7.40;5.50;;;14.20;99.90;;;;;;5012047;28;20668;-72
2022/09/12 03:00:19;;;;;;;7.93;5.77;;;14.20;99.90;;;;;;5011429;28;20548;-71
2022/09/12 03:03:06;;;;;;;6.70;5.50;;;14.20;99.90;;;;;;5012090;28;20290;-69
2022/09/12 03:05:37;;;;;;;6.77;5.50;;;14.20;99.90;;;;;;5012366;28;20255;-70
2022/09/12 03:08:27;;;;;;;7.27;5.67;;;14.10;99.90;;;;;;5011791;28;20214;-69
2022/09/12 03:11:09;;;;;;;5.53;4.90;;;14.10;99.90;;;;;;5011617;28;20241;-71
2022/09/12 03:13:48;;;;;;;6.20;4.63;;;14.20;99.90;;;;;;5011348;28;20210;-71
2022/09/12 03:16:23;;;;;;;7.47;4.83;;;14.10;99.90;;;;;;5010010;28;20289;-71
2022/09/12 03:19:01;;;;;;;3.83;3.40;;;14.10;99.90;;;;;;5012504;28;20289;-71
2022/09/12 03:21:33;;;;;;;4.53;2.60;;;14.10;99.90;;;;;;5010883;28;20229;-70
2022/09/12 03:24:11;;;;;;;2.90;2.40;;;14.00;99.90;;;;;;5011556;28;20242;-70
2022/09/12 03:26:42;;;;;;;2.57;2.37;;;13.90;99.90;;;;;;5011444;28;20253;-71
2022/09/12 03:29:12;;;;;;;2.23;2.00;;;13.80;99.90;;;;;;4992543;28;20283;-72
2022/09/12 03:31:48;;;;;;;3.10;2.40;;;13.70;99.90;;;;;;4996278;28;20250;-71
2022/09/12 03:34:17;;;;;;;2.60;1.80;;;13.60;99.90;;;;;;5011632;28;20214;-70
2022/09/12 03:36:44;;;;;;;2.60;1.70;;;13.50;99.90;;;;;;5012058;28;20293;-71
2022/09/12 03:39:11;;;;;;;2.60;1.47;;;13.50;99.90;;;;;;5011647;28;20282;-70
2022/09/12 03:41:38;;;;;;;3.53;1.60;;;13.50;99.90;;;;;;5009899;28;20207;-70
2022/09/12 03:44:05;;;;;;;1.77;1.40;;;13.40;99.90;;;;;;5008300;28;20297;-70
2022/09/12 03:46:32;;;;;;;2.33;1.40;;;13.40;99.90;;;;;;5011452;28;20310;-70
2022/09/12 03:48:59;;;;;;;1.30;1.20;;;13.30;99.90;;;;;;5011444;28;20955;-70
2022/09/12 03:51:27;;;;;;;1.43;1.33;;;13.20;99.90;;;;;;5011814;28;20226;-71
2022/09/12 03:53:54;;;;;;;1.73;1.03;;;13.20;99.90;;;;;;5011247;28;20203;-72
2022/09/12 03:56:22;;;;;;;1.37;1.07;;;13.10;99.90;;;;;;5010849;28;20207;-69
2022/09/12 03:58:48;;;;;;;1.43;1.30;;;13.10;99.90;;;;;;5010542;28;20238;-67
2022/09/12 04:01:17;;;;;;;1.30;1.20;;;13.10;99.90;;;;;;5010726;28;20267;-70
2022/09/12 04:03:46;;;;;;;1.43;1.33;;;13.00;99.90;;;;;;5011471;28;20294;-69
2022/09/12 04:06:15;;;;;;;2.20;1.30;;;12.90;99.90;;;;;;5009578;28;20577;-69
2022/09/12 04:08:44;;;;;;;1.40;1.30;;;12.90;99.90;;;;;;5010137;28;20309;-68
2022/09/12 04:11:13;;;;;;;1.43;1.20;;;12.80;99.90;;;;;;5009923;28;20317;-71
2022/09/12 04:13:41;;;;;;;2.10;1.53;;;12.80;99.90;;;;;;5010439;28;20676;-68
2022/09/12 04:16:09;;;;;;;1.80;1.70;;;12.80;99.90;;;;;;5010150;28;20245;-68
2022/09/12 04:18:36;;;;;;;1.53;1.43;;;12.80;99.90;;;;;;5012011;28;20275;-70
2022/09/12 04:21:05;;;;;;;1.90;1.57;;;12.80;99.90;;;;;;5008664;28;20219;-70
2022/09/12 04:23:32;;;;;;;2.73;1.60;;;12.80;99.90;;;;;;5010488;28;20211;-70
2022/09/12 04:26:02;;;;;;;2.90;1.73;;;12.80;99.90;;;;;;5010525;28;20660;-70
2022/09/12 04:28:29;;;;;;;2.03;1.70;;;12.80;99.90;;;;;;5010286;28;20600;-68
2022/09/12 04:31:01;;;;;;;2.73;1.70;;;12.80;99.90;;;;;;5009583;28;20309;-69
2022/09/12 04:33:28;;;;;;;1.93;1.70;;;12.80;99.90;;;;;;5009919;28;20198;-70
2022/09/12 04:35:54;;;;;;;1.80;1.70;;;12.80;99.90;;;;;;5010152;28;20297;-69
2022/09/12 04:38:21;;;;;;;2.23;1.93;;;12.90;99.90;;;;;;5009512;28;20777;-69
2022/09/12 04:40:48;;;;;;;2.53;1.90;;;12.90;99.90;;;;;;5010838;28;20636;-69
2022/09/12 04:43:16;;;;;;;1.83;1.73;;;12.90;99.90;;;;;;5010550;28;20302;-69
2022/09/12 04:45:43;;;;;;;3.00;1.77;;;12.90;99.90;;;;;;5009691;28;20262;-69
2022/09/12 04:48:10;;;;;;;1.63;1.40;;;12.90;99.90;;;;;;5009711;28;20209;-69
2022/09/12 04:50:37;;;;;;;2.33;1.30;;;12.80;99.90;;;;;;5010986;28;20711;-71
2022/09/12 04:53:04;;;;;;;1.40;1.30;;;12.80;99.90;;;;;;5009050;28;20306;-70
2022/09/12 04:55:31;;;;;;;1.50;1.37;;;12.80;99.90;;;;;;5010530;28;20613;-70
2022/09/12 04:57:58;;;;;;;1.90;1.50;;;12.80;99.90;;;;;;5010146;28;20258;-69
2022/09/12 05:00:26;;;;;;;1.77;1.40;;;12.80;99.90;;;;;;5009977;28;20258;-70
2022/09/12 05:02:53;;;;;;;1.40;1.30;;;12.80;99.90;;;;;;5008740;28;20242;-70
2022/09/12 05:05:20;;;;;;;1.30;1.20;;;12.80;99.90;;;;;;5009716;28;20289;-69
2022/09/12 05:07:48;;;;;;;3.20;1.27;;;12.70;99.90;;;;;;5008482;28;20203;-69
2022/09/12 05:10:15;;;;;;;1.47;1.37;;;12.70;99.90;;;;;;5008982;28;20317;-70
2022/09/12 05:12:42;;;;;;;1.30;1.20;;;12.80;99.90;;;;;;5009700;28;20211;-70
2022/09/12 05:15:10;;;;;;;1.43;1.30;;;12.80;99.90;;;;;;5009583;28;20238;-70
2022/09/12 05:17:38;;;;;;;2.13;1.27;;;12.80;99.90;;;;;;5008484;28;20215;-70
2022/09/12 05:20:06;;;;;;;1.30;1.20;;;12.70;99.90;;;;;;5009411;28;20246;-70
2022/09/12 05:22:33;;;;;;;1.50;1.20;;;12.80;99.90;;;;;;5009571;28;20209;-72
2022/09/12 05:25:00;;;;;;;1.70;1.27;;;12.80;99.90;;;;;;5008413;28;20238;-70
2022/09/12 05:27:27;;;;;;;1.30;1.20;;;12.80;99.90;;;;;;5019515;28;20237;-71
2022/09/12 05:29:54;;;;;;;1.40;1.30;;;12.80;99.90;;;;;;5014172;28;20290;-69
2022/09/12 05:32:21;;;;;;;4.40;1.60;;;12.80;99.90;;;;;;5009384;28;20309;-70
2022/09/12 05:34:49;;;;;;;3.77;1.57;;;12.80;99.90;;;;;;5009288;28;20297;-70
2022/09/12 05:37:16;;;;;;;2.60;1.57;;;12.90;99.90;;;;;;5009356;28;20238;-71
2022/09/12 05:39:43;;;;;;;2.20;1.57;;;12.90;99.90;;;;;;5010051;28;20206;-70
2022/09/12 05:42:11;;;;;;;3.33;1.63;;;12.90;99.90;;;;;;5007796;28;20580;-72
2022/09/12 05:44:37;;;;;;;1.80;1.60;;;12.90;99.90;;;;;;5007887;28;20302;-69
2022/09/12 05:47:04;;;;;;;2.50;1.50;;;12.80;99.90;;;;;;4993721;28;20234;-69
2022/09/12 05:49:31;;;;;;;4.07;1.60;;;12.80;99.90;;;;;;5009174;28;20300;-69
2022/09/12 05:51:59;;;;;;;2.97;1.87;;;12.80;99.90;;;;;;5007326;28;20234;-70
2022/09/12 05:54:27;;;;;;;1.60;1.50;;;12.80;99.90;;;;;;5008831;28;20207;-70
2022/09/12 05:56:53;;;;;;;2.17;1.40;;;12.80;99.90;;;;;;5009286;28;20641;-70
2022/09/12 05:59:22;;;;;;;2.10;1.43;;;12.80;99.90;;;;;;5009672;28;20737;-70
2022/09/12 06:01:49;;;;;;;3.57;1.43;;;12.80;99.90;;;;;;5008048;28;20218;-70
2022/09/12 06:04:17;;;;;;;29.00;13.27;;;12.80;99.90;;;;;;5008173;28;20211;-69
2022/09/12 06:06:45;;;;;;;10.53;5.20;;;12.80;99.90;;;;;;5010422;28;20254;-70
2022/09/12 06:09:15;;;;;;;17.13;7.93;;;12.90;99.90;;;;;;5009604;28;20290;-71
2022/09/12 06:11:42;;;;;;;5.87;3.73;;;12.90;99.90;;;;;;5008828;28;20310;-69
2022/09/12 06:14:10;;;;;;;4.23;2.20;;;13.00;99.90;;;;;;5009061;28;20238;-70
2022/09/12 06:16:37;;;;;;;3.67;2.00;;;13.00;99.90;;;;;;5009550;28;20652;-70
2022/09/12 06:19:06;;;;;;;2.27;1.73;;;13.10;99.90;;;;;;5008943;28;20221;-70
2022/09/12 06:21:34;;;;;;;3.93;1.93;;;13.10;99.90;;;;;;5015129;28;20210;-70
2022/09/12 06:24:01;;;;;;;3.10;1.60;;;13.20;99.90;;;;;;5021378;28;20203;-71
2022/09/12 06:26:30;;;;;;;2.27;1.50;;;13.30;99.90;;;;;;5008570;28;20299;-70
2022/09/12 06:28:59;;;;;;;2.93;1.50;;;13.40;99.90;;;;;;5008918;28;20242;-70
2022/09/12 06:31:28;;;;;;;2.87;1.30;;;13.50;99.90;;;;;;5012976;28;20233;-70
2022/09/12 06:33:56;;;;;;;1.90;1.80;;;13.60;99.90;;;;;;5017608;28;20554;-71
2022/09/12 06:36:25;;;;;;;2.67;1.70;;;13.70;99.90;;;;;;5019527;28;20213;-70
2022/09/12 06:38:56;;;;;;;4.13;1.40;;;13.80;99.90;;;;;;5028431;28;20328;-70
2022/09/12 06:41:24;;;;;;;2.00;1.42;;;13.90;99.90;;;;;;5016297;28;20480;-70
2022/09/12 06:43:53;;;;;;;2.90;1.40;;;13.90;99.90;;;;;;5016776;28;20290;-71
2022/09/12 06:46:20;;;;;;;4.13;1.70;;;14.10;99.90;;;;;;5011823;28;20282;-72
2022/09/12 06:48:47;;;;;;;6.07;1.60;;;14.20;99.90;;;;;;5012340;28;20305;-72
2022/09/12 06:51:15;;;;;;;1.90;1.50;;;14.30;99.90;;;;;;5018937;28;20317;-70
2022/09/12 06:53:43;;;;;;;2.73;1.80;;;14.30;99.90;;;;;;5013117;28;20610;-68
2022/09/12 06:56:12;;;;;;;1.80;1.70;;;14.40;99.90;;;;;;5011407;28;20235;-71
2022/09/12 06:58:39;;;;;;;4.70;1.80;;;14.50;99.90;;;;;;5011567;28;20298;-71
2022/09/12 07:01:09;;;;;;;4.50;1.60;;;14.50;99.90;;;;;;5012757;28;20221;-67
2022/09/12 07:03:37;;;;;;;1.93;1.57;;;14.50;99.90;;;;;;5010813;28;20205;-66
2022/09/12 07:06:05;;;;;;;1.60;1.50;;;14.60;99.90;;;;;;5010884;28;20610;-66
2022/09/12 07:08:32;;;;;;;3.20;1.50;;;14.60;99.90;;;;;;5011022;28;20656;-72
2022/09/12 07:11:07;;;;;;;2.13;1.50;;;14.60;99.90;;;;;;5011034;28;20237;-72
2022/09/12 07:13:34;;;;;;;8.37;5.70;;;14.60;99.90;;;;;;5011867;28;20302;-72
2022/09/12 07:16:01;;;;;;;3.10;2.17;;;14.70;99.90;;;;;;5010759;28;20294;-71
2022/09/12 07:18:30;;;;;;;2.00;1.80;;;14.70;99.90;;;;;;5011454;28;20246;-72
2022/09/12 07:20:59;;;;;;;1.70;1.60;;;14.80;99.90;;;;;;5011536;28;20203;-71
2022/09/12 07:23:26;;;;;;;2.27;1.63;;;14.80;99.90;;;;;;5010687;28;20297;-75
2022/09/12 07:25:55;;;;;;;1.60;1.40;;;14.90;99.90;;;;;;5010776;28;20246;-71
2022/09/12 07:28:23;;;;;;;1.70;1.27;;;15.00;99.90;;;;;;5010448;28;20290;-71
2022/09/12 07:30:50;;;;;;;2.23;1.40;;;15.00;99.90;;;;;;5020958;28;20214;-71
2022/09/12 07:33:17;;;;;;;1.90;1.50;;;15.10;99.90;;;;;;5009027;28;20210;-70
2022/09/12 07:35:45;;;;;;;1.97;1.40;;;15.20;99.90;;;;;;5021845;28;20218;-70
2022/09/12 07:38:12;;;;;;;1.87;1.67;;;15.30;99.90;;;;;;5010860;28;20297;-70
2022/09/12 07:40:39;;;;;;;1.50;1.40;;;15.40;99.90;;;;;;5010923;28;20217;-69
2022/09/12 07:43:06;;;;;;;2.87;1.90;;;15.40;99.90;;;;;;5011004;28;20293;-71
2022/09/12 07:45:33;;;;;;;1.60;1.50;;;15.50;99.90;;;;;;5010780;28;20248;-71
2022/09/12 07:48:00;;;;;;;3.20;1.63;;;15.50;99.90;;;;;;5012318;28;20238;-70
2022/09/12 07:50:27;;;;;;;4.00;1.90;;;15.50;99.90;;;;;;5010401;28;20207;-69
2022/09/12 07:52:55;;;;;;;2.43;1.90;;;15.50;99.90;;;;;;5010698;28;20310;-70
2022/09/12 07:55:22;;;;;;;1.87;1.73;;;15.60;99.90;;;;;;5015548;28;20246;-71
2022/09/12 07:57:49;;;;;;;2.60;2.13;;;15.60;99.90;;;;;;5010544;28;20266;-70
2022/09/12 08:00:17;;;;;;;4.57;2.07;;;15.70;99.90;;;;;;5010640;28;20271;-70
2022/09/12 08:02:44;;;;;;;2.87;2.20;;;15.80;99.90;;;;;;5012091;28;20205;-70
2022/09/12 08:05:11;;;;;;;3.27;2.10;;;15.90;99.90;;;;;;5007026;28;20624;-69
2022/09/12 08:07:38;;;;;;;2.20;2.00;;;15.90;99.90;;;;;;5009650;28;20642;-71
2022/09/12 08:10:07;;;;;;;2.97;2.57;;;16.00;99.90;;;;;;5010688;28;20297;-71
2022/09/12 08:12:35;;;;;;;2.97;2.30;;;16.00;99.90;;;;;;5010329;28;20229;-71
2022/09/12 08:15:02;;;;;;;4.83;2.20;;;16.00;99.90;;;;;;5010544;28;20212;-70
2022/09/12 08:17:29;;;;;;;3.10;2.37;;;16.00;99.90;;;;;;5010641;28;20216;-71
2022/09/12 08:19:56;;;;;;;3.70;2.60;;;16.00;99.90;;;;;;5010017;28;20218;-71
2022/09/12 08:22:24;;;;;;;3.03;2.73;;;16.10;99.90;;;;;;5009072;28;20208;-69
2022/09/12 08:24:51;;;;;;;2.60;2.30;;;16.10;99.90;;;;;;5008753;28;20227;-71
2022/09/12 08:27:19;;;;;;;3.27;2.37;;;16.10;99.90;;;;;;5010919;28;20298;-72
2022/09/12 08:29:46;;;;;;;2.60;2.40;;;16.10;99.90;;;;;;5010552;28;20233;-72
2022/09/12 08:32:13;;;;;;;2.50;2.30;;;16.10;99.90;;;;;;5010748;28;20229;-73
2022/09/12 08:34:40;;;;;;;2.47;2.27;;;16.10;99.90;;;;;;5009700;28;20763;-70
2022/09/12 08:37:07;;;;;;;2.47;2.27;;;16.20;99.90;;;;;;5010239;28;20272;-71
2022/09/12 08:39:34;;;;;;;2.63;2.20;;;16.20;99.90;;;;;;5009026;28;20207;-70
2022/09/12 08:42:02;;;;;;;2.77;2.20;;;16.20;99.90;;;;;;5014236;28;20291;-70
2022/09/12 08:44:44;;;;;;;3.03;2.20;;;16.20;99.90;;;;;;5010035;28;20218;-71
2022/09/12 08:47:21;;;;;;;2.30;2.10;;;16.20;99.90;;;;;;5010104;28;20259;-70
2022/09/12 08:50:02;;;;;;;3.13;2.30;;;16.30;99.90;;;;;;5010021;28;20247;-70
2022/09/12 08:52:34;;;;;;;3.43;2.30;;;16.30;99.90;;;;;;5008168;28;20305;-71
2022/09/12 08:55:02;;;;;;;3.17;2.40;;;16.30;99.90;;;;;;5010146;28;20617;-71
2022/09/12 08:57:29;;;;;;;2.40;2.20;;;16.30;99.90;;;;;;5007727;28;20289;-69
2022/09/12 08:59:57;;;;;;;2.27;2.03;;;16.40;99.90;;;;;;5010116;28;20293;-70
2022/09/12 09:02:41;;;;;;;2.53;2.00;;;16.40;99.90;;;;;;5009725;28;20737;-70
2022/09/12 09:05:19;;;;;;;4.30;2.27;;;16.50;99.90;;;;;;5012771;28;20200;-70
2022/09/12 09:08:21;;;;;;;3.20;1.90;;;16.50;99.90;;;;;;5008483;28;20231;-70
2022/09/12 09:10:52;;;;;;;4.40;3.07;;;16.50;99.90;;;;;;4997070;28;20194;-71
2022/09/12 09:16:27;;;;;;;2.20;1.90;;;16.50;99.90;;;;;;5005894;28;20211;-68
2022/09/12 09:18:57;;;;;;;2.53;2.10;;;16.50;99.90;;;;;;5007233;28;20253;-71
2022/09/12 09:21:29;;;;;;;4.00;2.07;;;16.60;99.90;;;;;;5008367;28;20205;-70
2022/09/12 09:24:02;;;;;;;2.90;1.80;;;16.60;99.90;;;;;;5011399;28;20198;-70
2022/09/12 09:26:34;;;;;;;2.10;1.90;;;16.70;99.90;;;;;;5009219;28;20724;-69
2022/09/12 09:29:05;;;;;;;2.50;2.30;;;16.70;99.90;;;;;;5005416;28;20294;-69
2022/09/12 09:31:38;;;;;;;3.23;2.57;;;16.70;99.90;;;;;;5030266;28;20592;-70
2022/09/12 09:34:13;;;;;;;2.70;1.73;;;16.60;99.90;;;;;;5007875;28;20263;-70
2022/09/12 09:36:48;;;;;;;2.53;2.00;;;16.50;99.90;;;;;;5008675;28;20192;-70
2022/09/12 09:39:27;;;;;;;2.67;1.93;;;16.50;99.90;;;;;;5009220;28;20222;-74
2022/09/12 09:42:07;;;;;;;2.20;2.00;;;16.40;99.90;;;;;;5008792;28;20545;-70
2022/09/12 09:44:34;;;;;;;14.57;8.00;;;16.30;99.90;;;;;;4989275;28;20206;-70
2022/09/12 09:47:04;;;;;;;4.37;3.10;;;16.20;99.90;;;;;;4989371;28;20287;-70
2022/09/12 09:49:33;;;;;;;2.30;1.83;;;16.10;99.90;;;;;;5005652;28;20222;-71
2022/09/12 09:52:01;;;;;;;2.83;1.97;;;16.00;99.90;;;;;;5008520;28;20317;-70
2022/09/12 09:54:34;;;;;;;2.17;1.80;;;15.90;99.90;;;;;;5008571;28;20737;-70
2022/09/12 09:57:01;;;;;;;1.90;1.70;;;15.60;99.90;;;;;;5006843;28;20230;-70
2022/09/12 09:59:30;;;;;;;7.10;2.07;;;15.50;99.90;;;;;;5006937;28;20229;-73
2022/09/12 10:02:02;;;;;;;2.97;2.00;;;15.40;99.90;;;;;;5008878;28;20211;-71
2022/09/12 10:04:32;;;;;;;4.03;2.43;;;15.30;99.90;;;;;;5007319;28;20245;-71
2022/09/12 10:07:01;;;;;;;3.07;2.00;;;15.20;99.90;;;;;;5005111;28;20207;-72
2022/09/12 10:09:29;;;;;;;2.30;2.10;;;15.10;99.90;;;;;;5008267;28;20352;-71
2022/09/12 10:11:57;;;;;;;2.77;1.70;;;14.90;99.90;;;;;;5011697;28;20269;-71
2022/09/12 10:14:30;;;;;;;3.57;2.17;;;14.70;99.90;;;;;;5010892;28;20238;-70
2022/09/12 10:16:58;;;;;;;3.00;2.00;;;14.50;99.90;;;;;;5010798;28;20291;-70
2022/09/12 10:19:35;;;;;;;3.07;2.20;;;14.30;99.90;;;;;;5011685;28;20242;-71
2022/09/12 10:22:04;;;;;;;2.27;1.80;;;14.20;99.90;;;;;;5012006;28;20187;-71
2022/09/12 10:24:35;;;;;;;2.20;2.00;;;14.10;99.90;;;;;;5011539;28;20260;-70
2022/09/12 10:27:16;;;;;;;2.80;1.90;;;14.10;99.90;;;;;;5011797;28;20195;-71
2022/09/12 10:29:47;;;;;;;3.80;2.00;;;14.10;99.90;;;;;;5011876;28;20281;-70
2022/09/12 10:32:22;;;;;;;1.93;1.83;;;14.10;99.90;;;;;;5011992;28;20218;-72
2022/09/12 10:34:54;;;;;;;3.63;3.00;;;14.00;99.90;;;;;;5011094;28;20207;-71
2022/09/12 10:37:26;;;;;;;3.40;2.70;;;14.00;99.90;;;;;;5011324;28;20239;-70
2022/09/12 10:39:56;;;;;;;3.53;2.40;;;13.90;99.90;;;;;;5011329;28;20211;-71
2022/09/12 10:42:47;;;;;;;3.40;2.53;;;13.80;99.90;;;;;;5011541;28;20191;-70
2022/09/12 10:45:23;;;;;;;3.83;2.10;;;13.90;99.90;;;;;;5011410;28;20282;-71
2022/09/12 10:47:51;;;;;;;2.50;2.20;;;13.80;99.90;;;;;;5011542;28;20201;-70
2022/09/12 10:50:25;;;;;;;2.23;2.03;;;13.90;99.90;;;;;;5010350;28;20314;-70
2022/09/12 10:52:53;;;;;;;2.67;2.20;;;13.90;99.90;;;;;;4997227;28;20296;-71
2022/09/12 10:55:26;;;;;;;2.67;2.20;;;14.00;99.90;;;;;;5011141;28;20568;-70
2022/09/12 10:58:11;;;;;;;5.67;2.00;;;14.00;99.90;;;;;;5011197;28;20286;-71
2022/09/12 11:00:47;;;;;;;2.27;2.00;;;14.00;99.90;;;;;;5011229;28;20230;-71
2022/09/12 11:03:22;;;;;;;2.00;1.80;;;14.20;99.90;;;;;;5010944;28;20223;-71
2022/09/12 11:05:57;;;;;;;3.53;1.90;;;14.30;99.90;;;;;;5010617;28;20203;-71
2022/09/12 11:08:52;;;;;;;2.20;2.00;;;14.30;99.90;;;;;;5010266;28;20244;-70
2022/09/12 11:11:50;;;;;;;4.97;3.40;;;14.40;99.90;;;;;;5010997;28;20235;-70
2022/09/12 11:14:27;;;;;;;6.37;2.60;;;14.50;99.90;;;;;;5010979;28;20297;-72
2022/09/12 11:17:02;;;;;;;3.10;2.10;;;14.60;99.90;;;;;;5011459;28;20695;-71
2022/09/12 11:19:49;;;;;;;3.40;2.30;;;14.70;99.90;;;;;;5010883;28;20644;-71
2022/09/12 11:22:35;;;;;;;2.50;2.30;;;14.70;99.90;;;;;;5010045;28;20230;-71
2022/09/12 11:25:23;;;;;;;2.57;2.13;;;14.80;99.90;;;;;;5011367;28;20712;-71
2022/09/12 11:28:21;;;;;;;2.40;2.17;;;14.90;99.90;;;;;;5012150;28;20306;-71
2022/09/12 11:31:02;;;;;;;4.20;3.60;;;15.00;99.90;;;;;;5011341;28;20217;-71
2022/09/12 11:33:41;;;;;;;3.83;2.30;;;15.10;99.90;;;;;;5010697;28;20308;-71
2022/09/12 11:36:16;;;;;;;4.30;2.20;;;15.30;99.90;;;;;;5010493;28;20187;-72
2022/09/12 11:39:01;;;;;;;3.10;1.80;;;15.40;99.90;;;;;;5009675;28;20329;-70
2022/09/12 11:41:32;;;;;;;2.60;2.20;;;15.60;99.90;;;;;;5010866;28;20557;-70
2022/09/12 11:44:08;;;;;;;2.90;2.00;;;15.70;99.90;;;;;;5010773;28;20691;-72
2022/09/12 11:46:36;;;;;;;2.57;2.23;;;15.80;99.90;;;;;;5010274;28;20295;-71
2022/09/12 11:49:14;;;;;;;2.90;2.00;;;15.80;99.90;;;;;;5010531;28;20222;-71
2022/09/12 11:51:44;;;;;;;1.90;1.70;;;16.00;99.90;;;;;;5010659;28;20199;-71
2022/09/12 11:54:20;;;;;;;1.70;1.60;;;16.10;99.90;;;;;;5010463;28;20319;-71
2022/09/12 11:56:49;;;;;;;2.17;1.97;;;16.20;99.90;;;;;;5010096;28;20294;-72
2022/09/12 11:59:28;;;;;;;2.67;2.40;;;16.30;99.90;;;;;;5009985;28;20272;-71
2022/09/12 12:01:59;;;;;;;2.47;2.07;;;16.40;99.90;;;;;;5010346;28;20303;-71
2022/09/12 12:04:34;;;;;;;2.17;1.87;;;16.50;99.90;;;;;;5010581;28;20213;-71
2022/09/12 12:07:04;;;;;;;3.20;2.20;;;16.50;99.90;;;;;;5010138;28;20226;-71
2022/09/12 12:09:33;;;;;;;2.70;1.93;;;16.50;99.90;;;;;;5010331;28;20203;-71
2022/09/12 12:12:05;;;;;;;2.47;2.13;;;16.50;99.90;;;;;;5009232;28;20383;-71
2022/09/12 12:14:40;;;;;;;3.20;2.50;;;16.30;99.90;;;;;;5009791;28;20206;-72
2022/09/12 12:17:14;;;;;;;3.50;2.30;;;16.20;99.90;;;;;;5010401;28;20260;-71
2022/09/12 12:19:41;;;;;;;6.80;3.43;;;16.20;99.90;;;;;;5010182;28;20563;-70
2022/09/12 12:22:16;;;;;;;6.10;3.40;;;16.00;99.90;;;;;;5010006;28;20307;-71
2022/09/12 12:25:05;;;;;;;5.37;3.20;;;15.80;99.90;;;;;;5010095;28;20655;-71
2022/09/12 12:27:50;;;;;;;3.53;2.57;;;15.60;99.90;;;;;;5010072;28;20566;-71
2022/09/12 12:31:02;;;;;;;4.17;2.90;;;15.40;99.90;;;;;;5009323;28;20718;-71
2022/09/12 12:34:01;;;;;;;23.43;15.30;;;15.40;99.90;;;;;;5009488;28;20222;-72
2022/09/12 12:36:42;;;;;;;7.60;4.90;;;15.40;99.90;;;;;;5009732;28;20211;-71
2022/09/12 12:39:46;;;;;;;4.57;3.00;;;15.40;99.90;;;;;;5009623;28;20295;-70
2022/09/12 12:43:03;;;;;;;3.90;3.10;;;15.30;99.90;;;;;;5009198;28;20206;-72
2022/09/12 12:46:01;;;;;;;5.47;3.13;;;15.30;99.90;;;;;;5002840;28;20213;-74
2022/09/12 12:48:43;;;;;;;4.87;2.93;;;15.30;99.90;;;;;;5009698;28;20636;-72
2022/09/12 12:51:49;;;;;;;23.60;15.23;;;15.30;99.90;;;;;;5009392;28;20191;-70
2022/09/12 12:54:45;;;;;;;12.10;8.17;;;15.30;99.90;;;;;;5009547;28;20214;-71
2022/09/12 12:57:26;;;;;;;6.47;4.70;;;15.30;99.90;;;;;;5008181;28;20237;-73
2022/09/12 12:59:55;;;;;;;8.23;4.47;;;15.30;99.90;;;;;;5009521;28;20222;-72
2022/09/12 13:02:29;;;;;;;6.80;3.93;;;15.30;99.90;;;;;;5008711;28;20642;-72
2022/09/12 13:04:57;;;;;;;7.30;3.50;;;15.20;99.90;;;;;;5009157;28;20237;-70
2022/09/12 13:07:32;;;;;;;4.40;3.00;;;15.10;99.90;;;;;;5009738;28;20617;-70
2022/09/12 13:10:00;;;;;;;4.30;2.90;;;15.10;99.90;;;;;;5009071;28;20210;-72